Ivano-Frankivs'k, Ukraine

9:24 AM EET on March 03, 2015 (GMT +0200)
Ivano-Frankivs'k | Change Station
CLOSE
Current Station
Airport
Location: Ivano-Frankivs'k,
Elevation: 919 ft
Nearby Weather Stations

Elev 919 ft 48.88 °N, 24.69 °E | Updated 24 minutes ago

Clear
Clear
39 °F
Feels Like 33 °F
N
9
Wind Variable Wind from West

Today
High -- | Low -- °F
--% Chance of Precip.
Yesterday
High -- | Low -- °F
Precip. -- in
7:00 AM 6:07 PM
Waxing Gibbous, 95% visible
Pressure 29.92 in
Visibility -9999.0 miles
Clouds
Windchill 33 °F
Dew Point 32 °F
Humidity 75%
Rainfall 0.00 in
Snow Depth Not available.
UV Not available.
Pollen Not available.
Air Quality Not available.
Flu Activity Not available.
METAR UKLI 030700Z 26004MPS CAVOK 04/00 Q1013 NOSIG

More Conditions Fewer Conditions

Pressure 29.92 in
Visibility -9999.0 miles
Clouds
Windchill 33 °F
Dew Point 32 °F
Humidity 75%
Rainfall 0.00 in
Snow Depth Not available.
UV Not available.
Pollen Not available.
Air Quality Not available.
Flu Activity Not available.
METAR UKLI 030700Z 26004MPS CAVOK 04/00 Q1013 NOSIG

More Conditions Fewer Conditions

10-Day Weather Forecast

Almanac

Astronomy

Mar. 03, 2015 Rise Set
Actual Time
Civil Twilight
Nautical Twilight
Astronomical Twilight
Moon
Length of Visible Light
Length of Day
Tomorrow will be .
, % of the Moon is Illuminated

Today's Extremes

Country Highs Country Lows

Community

WunderPhotos

Upload Photos

1,802,073 photos uploaded!

WunderBlogs® & News

Nearby

Air Quality

  Air Quality AQ Index Pollutant
Not available.

Snow Depth

Station Depth Elevation

Earthquake Activity

City Distance Mag. Time & Date
Minimum magnitude displayed is 2.5.

Coastal Water Temperatures

Place Temperature

Nearby Weather Stations